Time;durP1;ratioP1;P1;durP2;ratioP2;P2;SDS_P1;SDS_P2;PMS_P1;PMS_P2;Temp;Humidity;BMP_temperature;BMP_pressure;BME280_temperature;BME280_humidity;BME280_pressure;Samples;Min_cycle;Max_cycle;Signal;HPM_P1;HPM_P2
2023/04/25 00:01:36;;;;;;;;;;;6.80;99.90;;;;;;5114853;28;19934;-72
2023/04/25 00:04:05;;;;;;;;;;;6.80;99.90;;;;;;5096354;28;19928;-72
2023/04/25 00:06:32;;;;;;;;;;;6.80;99.90;;;;;;5113603;28;19924;-72
2023/04/25 00:08:57;;;;;;;;;;;7.30;99.90;;;;;;5096057;28;20026;-72
2023/04/25 00:11:23;;;;;;;;;;;6.90;99.90;;;;;;5114869;28;20359;-72
2023/04/25 00:13:50;;;;;;;;;;;6.70;99.90;;;;;;5095424;28;19931;-72
2023/04/25 00:16:16;;;;;;;;;;;6.70;99.90;;;;;;5096601;28;20438;-72
2023/04/25 00:18:42;;;;;;;;;;;6.70;99.90;;;;;;5114818;28;19927;-71
2023/04/25 00:21:08;;;;;;;;;;;7.30;99.90;;;;;;5095061;28;19981;-72
2023/04/25 00:23:35;;;;;;;;;;;6.60;99.90;;;;;;5114688;28;20368;-72
2023/04/25 00:26:01;;;;;;;;;;;7.30;99.90;;;;;;5095784;28;20363;-71
2023/04/25 00:28:26;;;;;;;;;;;6.90;99.90;;;;;;5095098;28;19934;-72
2023/04/25 00:30:51;;;;;;;;;;;6.50;99.90;;;;;;5095270;28;19972;-72
2023/04/25 00:33:17;;;;;;;;;;;6.50;99.90;;;;;;5096265;28;19924;-72
2023/04/25 00:35:43;;;;;;;;;;;7.90;99.90;;;;;;5094850;28;19928;-72
2023/04/25 00:38:08;;;;;;;;;;;6.50;99.90;;;;;;5095827;28;20313;-71
2023/04/25 00:40:34;;;;;;;;;;;6.50;99.90;;;;;;5113605;28;19930;-72
2023/04/25 00:43:00;;;;;;;;;;;6.50;99.90;;;;;;5095633;28;19923;-72
2023/04/25 00:45:31;;;;;;;;;;;6.50;99.90;;;;;;5113534;28;19936;-72
2023/04/25 00:47:57;;;;;;;;;;;6.50;99.90;;;;;;5113186;28;20008;-72
2023/04/25 00:50:22;;;;;;;;;;;6.60;99.90;;;;;;5114066;28;19993;-72
2023/04/25 00:52:48;;;;;;;;;;;6.60;99.90;;;;;;5095767;28;19920;-72
2023/04/25 00:55:15;;;;;;;;;;;6.80;99.90;;;;;;5112536;28;19924;-72
2023/04/25 00:57:41;;;;;;;;;;;6.70;99.90;;;;;;5095407;28;20371;-72
2023/04/25 01:00:09;;;;;;;;;;;6.70;99.90;;;;;;5095403;28;19930;-72
2023/04/25 01:02:35;;;;;;;;;;;6.70;99.90;;;;;;5113249;28;20014;-72
2023/04/25 01:05:01;;;;;;;;;;;6.60;99.90;;;;;;5094693;28;19924;-72
2023/04/25 01:07:27;;;;;;;;;;;6.50;99.90;;;;;;5113642;28;20288;-72
2023/04/25 01:09:52;;;;;;;;;;;7.10;99.90;;;;;;5094283;28;19931;-71
2023/04/25 01:12:18;;;;;;;;;;;6.50;99.90;;;;;;5113528;28;19927;-72
2023/04/25 01:14:43;;;;;;;;;;;6.70;99.90;;;;;;5095285;28;19923;-72
2023/04/25 01:17:09;;;;;;;;;;;6.70;99.90;;;;;;5094166;28;20480;-72
2023/04/25 01:19:35;;;;;;;;;;;6.40;99.90;;;;;;5113751;28;19920;-72
2023/04/25 01:22:01;;;;;;;;;;;6.20;99.90;;;;;;5113267;28;19984;-72
2023/04/25 01:24:26;;;;;;;;;;;6.20;99.90;;;;;;5112570;28;19935;-71
2023/04/25 01:26:53;;;;;;;;;;;6.10;99.90;;;;;;5095245;28;20012;-72
2023/04/25 01:29:19;;;;;;;;;;;6.00;99.90;;;;;;5095370;28;20355;-72
2023/04/25 01:31:45;;;;;;;;;;;5.90;99.90;;;;;;5112427;28;19924;-71
2023/04/25 01:34:11;;;;;;;;;;;5.90;99.90;;;;;;5094901;28;19928;-72
2023/04/25 01:36:36;;;;;;;;;;;6.30;99.90;;;;;;5095258;28;19928;-72
2023/04/25 01:39:02;;;;;;;;;;;5.80;99.90;;;;;;5112020;28;19927;-72
2023/04/25 01:41:28;;;;;;;;;;;5.80;99.90;;;;;;5113267;28;19969;-72
2023/04/25 01:43:53;;;;;;;;;;;5.80;99.90;;;;;;5093857;28;19924;-72
2023/04/25 01:46:19;;;;;;;;;;;5.90;99.90;;;;;;5094861;28;20366;-72
2023/04/25 01:48:45;;;;;;;;;;;5.90;99.90;;;;;;5095502;28;19928;-72
2023/04/25 01:51:11;;;;;;;;;;;5.90;99.90;;;;;;5093413;28;19927;-72
2023/04/25 01:53:37;;;;;;;;;;;6.30;99.90;;;;;;5095114;28;20019;-72
2023/04/25 01:56:03;;;;;;;;;;;6.90;99.90;;;;;;5097387;28;20090;-72
2023/04/25 01:58:28;;;;;;;;;;;5.90;99.90;;;;;;5116263;28;19923;-72
2023/04/25 02:00:54;;;;;;;;;;;5.80;99.90;;;;;;5098466;28;19923;-72
2023/04/25 02:03:20;;;;;;;;;;;6.10;99.90;;;;;;5099310;28;19970;-72
2023/04/25 02:05:45;;;;;;;;;;;5.80;99.90;;;;;;5097709;28;20400;-72
2023/04/25 02:08:11;;;;;;;;;;;6.00;99.90;;;;;;5098645;28;19927;-72
2023/04/25 02:10:36;;;;;;;;;;;5.80;99.90;;;;;;5098847;28;19935;-72
2023/04/25 02:13:02;;;;;;;;;;;5.80;99.90;;;;;;5115687;28;20410;-72
2023/04/25 02:15:28;;;;;;;;;;;5.70;99.90;;;;;;5116650;28;19947;-72
2023/04/25 02:17:53;;;;;;;;;;;5.70;99.90;;;;;;5098285;28;19931;-71
2023/04/25 02:20:21;;;;;;;;;;;5.90;99.90;;;;;;5097881;28;20282;-72
2023/04/25 02:22:46;;;;;;;;;;;5.70;99.90;;;;;;5098747;28;19927;-71
2023/04/25 02:25:12;;;;;;;;;;;5.70;99.90;;;;;;5098086;28;20295;-71
2023/04/25 02:27:38;;;;;;;;;;;5.70;99.90;;;;;;5115995;28;19923;-72
2023/04/25 02:30:04;;;;;;;;;;;5.70;99.90;;;;;;5098409;28;19973;-72
2023/04/25 02:32:30;;;;;;;;;;;5.70;99.90;;;;;;5116411;28;19926;-72
2023/04/25 02:34:58;;;;;;;;;;;5.80;99.90;;;;;;5115711;28;19928;-72
2023/04/25 02:37:24;;;;;;;;;;;5.60;99.90;;;;;;5116644;28;19924;-72
2023/04/25 02:39:49;;;;;;;;;;;5.60;99.90;;;;;;5098127;28;19924;-71
2023/04/25 02:42:15;;;;;;;;;;;5.50;99.90;;;;;;5115941;28;20321;-71
2023/04/25 02:44:41;;;;;;;;;;;5.60;99.90;;;;;;5098337;28;19971;-71
2023/04/25 02:47:06;;;;;;;;;;;5.60;99.90;;;;;;5115291;28;19934;-72
2023/04/25 02:49:32;;;;;;;;;;;5.60;99.90;;;;;;5116648;28;20378;-72
2023/04/25 02:51:57;;;;;;;;;;;5.60;99.90;;;;;;5097646;28;20379;-72
2023/04/25 02:54:23;;;;;;;;;;;6.00;99.90;;;;;;5115101;28;19934;-72
2023/04/25 02:56:48;;;;;;;;;;;5.70;99.90;;;;;;5097839;28;20359;-72
2023/04/25 02:59:14;;;;;;;;;;;5.70;99.90;;;;;;5094042;28;19924;-72
2023/04/25 03:01:39;;;;;;;;;;;5.80;99.90;;;;;;5094420;28;19928;-72
2023/04/25 03:04:08;;;;;;;;;;;5.90;99.90;;;;;;5095472;28;19934;-72
2023/04/25 03:06:33;;;;;;;;;;;5.90;99.90;;;;;;5094129;28;19998;-72
2023/04/25 03:08:59;;;;;;;;;;;5.90;99.90;;;;;;5093474;28;19924;-71
2023/04/25 03:11:25;;;;;;;;;;;6.00;99.90;;;;;;5095106;28;20375;-72
2023/04/25 03:13:50;;;;;;;;;;;6.00;99.90;;;;;;5094263;28;19924;-72
2023/04/25 03:16:16;;;;;;;;;;;6.00;99.90;;;;;;5093233;28;20466;-71
2023/04/25 03:18:41;;;;;;;;;;;6.30;99.90;;;;;;5094190;28;19924;-71
2023/04/25 03:21:10;;;;;;;;;;;6.00;99.90;;;;;;5094559;28;20062;-72
2023/04/25 03:23:35;;;;;;;;;;;5.90;99.90;;;;;;5093089;28;19924;-71
2023/04/25 03:26:01;;;;;;;;;;;5.80;99.90;;;;;;5094694;28;19950;-72
2023/04/25 03:28:27;;;;;;;;;;;5.70;99.90;;;;;;5094020;28;19931;-71
2023/04/25 03:30:53;;;;;;;;;;;5.70;99.90;;;;;;5094320;28;20007;-72
2023/04/25 03:33:19;;;;;;;;;;;5.60;99.90;;;;;;5093832;28;19928;-72
2023/04/25 03:35:45;;;;;;;;;;;5.60;99.90;;;;;;5094007;28;20052;-71
2023/04/25 03:38:10;;;;;;;;;;;5.70;99.90;;;;;;5092338;28;20294;-71
2023/04/25 03:40:36;;;;;;;;;;;5.70;99.90;;;;;;5093645;28;20026;-72
2023/04/25 03:43:01;;;;;;;;;;;5.70;99.90;;;;;;5093690;28;20279;-71
2023/04/25 03:45:27;;;;;;;;;;;5.70;99.90;;;;;;5092587;28;20387;-71
2023/04/25 03:47:52;;;;;;;;;;;5.70;99.90;;;;;;5094404;28;20371;-72
2023/04/25 03:50:18;;;;;;;;;;;5.70;99.90;;;;;;5094455;28;20023;-72
2023/04/25 03:52:43;;;;;;;;;;;5.60;99.90;;;;;;5092614;28;19924;-72
2023/04/25 03:55:09;;;;;;;;;;;5.70;99.90;;;;;;5092558;28;19927;-71
2023/04/25 03:57:35;;;;;;;;;;;6.30;99.90;;;;;;5092365;28;19946;-72
2023/04/25 04:00:01;;;;;;;;;;;5.50;99.90;;;;;;5094205;28;19931;-72
2023/04/25 04:02:26;;;;;;;;;;;5.40;99.90;;;;;;5093486;28;19928;-72
2023/04/25 04:04:52;;;;;;;;;;;5.70;99.90;;;;;;5092168;28;19973;-72
2023/04/25 04:07:17;;;;;;;;;;;5.90;99.90;;;;;;5094149;28;19927;-72
2023/04/25 04:09:43;;;;;;;;;;;5.40;99.90;;;;;;5093981;28;19928;-72
2023/04/25 04:12:11;;;;;;;;;;;5.40;99.90;;;;;;5093200;28;20381;-72
2023/04/25 04:14:37;;;;;;;;;;;5.60;99.90;;;;;;5094205;28;19928;-72
2023/04/25 04:17:02;;;;;;;;;;;5.90;99.90;;;;;;5092365;28;20303;-72
2023/04/25 04:19:28;;;;;;;;;;;5.60;99.90;;;;;;5091603;28;20019;-72
2023/04/25 04:21:53;;;;;;;;;;;5.90;99.90;;;;;;5092052;28;19993;-72
2023/04/25 04:24:19;;;;;;;;;;;5.70;99.90;;;;;;5092771;28;19924;-72
2023/04/25 04:26:45;;;;;;;;;;;6.00;99.90;;;;;;5092938;28;20307;-72
2023/04/25 04:29:11;;;;;;;;;;;5.80;99.90;;;;;;5092410;28;19927;-72
2023/04/25 04:31:36;;;;;;;;;;;5.60;99.90;;;;;;5093478;28;20296;-72
2023/04/25 04:34:03;;;;;;;;;;;6.10;99.90;;;;;;5091565;28;19924;-71
2023/04/25 04:36:29;;;;;;;;;;;5.60;99.90;;;;;;5092463;28;19924;-72
2023/04/25 04:38:56;;;;;;;;;;;5.60;99.90;;;;;;5092410;28;19931;-72
2023/04/25 04:41:21;;;;;;;;;;;5.60;99.90;;;;;;5091668;28;19931;-72
2023/04/25 04:43:47;;;;;;;;;;;5.70;99.90;;;;;;5093886;28;19924;-72
2023/04/25 04:46:16;;;;;;;;;;;5.60;99.90;;;;;;5091739;28;19931;-72
2023/04/25 04:48:42;;;;;;;;;;;5.70;99.90;;;;;;5091633;28;20283;-72
2023/04/25 04:51:10;;;;;;;;;;;5.60;99.90;;;;;;5092071;28;20452;-72
2023/04/25 04:53:36;;;;;;;;;;;5.70;99.90;;;;;;5092543;28;19928;-72
2023/04/25 04:56:02;;;;;;;;;;;6.00;99.90;;;;;;5093199;28;19931;-72
2023/04/25 04:58:29;;;;;;;;;;;5.60;99.90;;;;;;5091916;28;20391;-72
2023/04/25 05:00:55;;;;;;;;;;;6.30;99.90;;;;;;5091585;28;20425;-72
2023/04/25 05:03:20;;;;;;;;;;;5.60;99.90;;;;;;5092390;28;19920;-72
2023/04/25 05:05:46;;;;;;;;;;;5.60;99.90;;;;;;5091722;28;20421;-72
2023/04/25 05:08:11;;;;;;;;;;;5.60;99.90;;;;;;5090726;28;19935;-72
2023/04/25 05:10:37;;;;;;;;;;;5.50;99.90;;;;;;5091980;28;19951;-73
2023/04/25 05:13:02;;;;;;;;;;;5.60;99.90;;;;;;5092805;28;19924;-73
2023/04/25 05:15:28;;;;;;;;;;;5.60;99.90;;;;;;5091464;28;19924;-72
2023/04/25 05:17:53;;;;;;;;;;;5.60;99.90;;;;;;5092742;28;19931;-73
2023/04/25 05:20:19;;;;;;;;;;;5.70;99.90;;;;;;5092816;28;19924;-73
2023/04/25 05:22:45;;;;;;;;;;;5.90;99.90;;;;;;5091305;28;20364;-73
2023/04/25 05:25:10;;;;;;;;;;;5.80;99.90;;;;;;5091402;28;20022;-73
2023/04/25 05:27:36;;;;;;;;;;;5.90;99.90;;;;;;5092279;28;19928;-73
2023/04/25 05:30:01;;;;;;;;;;;6.50;99.90;;;;;;5091243;28;19925;-72
2023/04/25 05:32:27;;;;;;;;;;;6.00;99.90;;;;;;5091399;28;19927;-73
2023/04/25 05:34:53;;;;;;;;;;;6.10;99.90;;;;;;5125551;28;19974;-72
2023/04/25 05:37:18;;;;;;;;;;;6.10;99.90;;;;;;5091780;28;19924;-72
2023/04/25 05:39:44;;;;;;;;;;;6.10;99.90;;;;;;5092664;28;19924;-73
2023/04/25 05:42:10;;;;;;;;;;;6.10;99.90;;;;;;5091396;28;19963;-73
2023/04/25 05:44:38;;;;;;;;;;;6.20;99.90;;;;;;5092252;28;20280;-72
2023/04/25 05:47:04;;;;;;;;;;;6.10;99.90;;;;;;5091091;28;19924;-72
2023/04/25 05:49:30;;;;;;;;;;;5.80;99.90;;;;;;5091386;28;19924;-72
2023/04/25 05:51:55;;;;;;;;;;;5.70;99.90;;;;;;5090179;28;19931;-72
2023/04/25 05:54:21;;;;;;;;;;;5.60;99.90;;;;;;5091031;28;19924;-72
2023/04/25 05:56:49;;;;;;;;;;;5.50;99.90;;;;;;5092870;28;19950;-72
2023/04/25 05:59:15;;;;;;;;;;;5.40;99.90;;;;;;5090124;28;20007;-72
2023/04/25 06:01:41;;;;;;;;;;;5.30;99.90;;;;;;5091314;28;20015;-72
2023/04/25 06:04:07;;;;;;;;;;;5.30;99.90;;;;;;5090515;28;19928;-72
2023/04/25 06:06:32;;;;;;;;;;;5.30;99.90;;;;;;5092847;28;19931;-73
2023/04/25 06:08:58;;;;;;;;;;;5.60;99.90;;;;;;5092720;28;20299;-72
2023/04/25 06:11:23;;;;;;;;;;;5.50;99.90;;;;;;5091216;28;19932;-72
2023/04/25 06:13:49;;;;;;;;;;;5.70;99.90;;;;;;5092500;28;19925;-73
2023/04/25 06:16:15;;;;;;;;;;;6.20;99.90;;;;;;5090643;28;19924;-73
2023/04/25 06:18:40;;;;;;;;;;;6.40;99.90;;;;;;5090739;28;20401;-73
2023/04/25 06:21:06;;;;;;;;;;;6.20;99.90;;;;;;5091263;28;19928;-73
2023/04/25 06:23:31;;;;;;;;;;;6.10;99.90;;;;;;5091354;28;20322;-73
2023/04/25 06:25:57;;;;;;;;;;;6.40;99.90;;;;;;5090284;28;20387;-73
2023/04/25 06:28:24;;;;;;;;;;;6.50;99.90;;;;;;5091146;28;20398;-73
2023/04/25 06:30:50;;;;;;;;;;;6.70;99.90;;;;;;5091435;28;19924;-73
2023/04/25 06:33:20;;;;;;;;;;;6.90;99.90;;;;;;5089842;28;19962;-73
2023/04/25 06:35:45;;;;;;;;;;;6.80;99.90;;;;;;5092623;28;19954;-72
2023/04/25 06:38:11;;;;;;;;;;;6.50;99.90;;;;;;5091077;28;19932;-72
2023/04/25 06:40:36;;;;;;;;;;;6.40;99.90;;;;;;5091235;28;19928;-72
2023/04/25 06:43:02;;;;;;;;;;;6.10;99.90;;;;;;5095564;28;20412;-72
2023/04/25 06:45:30;;;;;;;;;;;6.00;99.90;;;;;;5095558;28;20295;-72
2023/04/25 06:47:59;;;;;;;;;;;6.00;99.90;;;;;;5094604;28;19924;-72
2023/04/25 06:50:25;;;;;;;;;;;6.10;99.90;;;;;;5096032;28;19924;-72
2023/04/25 06:52:50;;;;;;;;;;;6.30;99.90;;;;;;5094508;28;19977;-73
2023/04/25 06:55:16;;;;;;;;;;;6.40;99.90;;;;;;5093444;28;19935;-73
2023/04/25 06:57:41;;;;;;;;;;;6.70;99.90;;;;;;5102521;28;19975;-73
2023/04/25 07:00:09;;;;;;;;;;;7.10;99.90;;;;;;5115895;28;20015;-73
2023/04/25 07:02:35;;;;;;;;;;;6.80;99.90;;;;;;5096929;28;19919;-73
2023/04/25 07:05:03;;;;;;;;;;;7.00;99.90;;;;;;5115471;28;19924;-73
2023/04/25 07:07:30;;;;;;;;;;;7.00;99.90;;;;;;5097279;28;19931;-73
2023/04/25 07:09:56;;;;;;;;;;;7.10;99.90;;;;;;5115012;28;19924;-73
2023/04/25 07:12:21;;;;;;;;;;;7.20;99.90;;;;;;5097575;28;20299;-73
2023/04/25 07:14:47;;;;;;;;;;;7.20;99.90;;;;;;5114714;28;19923;-73
2023/04/25 07:17:12;;;;;;;;;;;7.20;99.90;;;;;;5115571;28;20436;-73
2023/04/25 07:19:39;;;;;;;;;;;7.30;99.90;;;;;;5096786;28;19931;-73
2023/04/25 07:22:05;;;;;;;;;;;7.50;99.90;;;;;;5096238;28;19924;-73
2023/04/25 07:24:31;;;;;;;;;;;8.00;99.90;;;;;;5115530;28;19930;-73
2023/04/25 07:26:57;;;;;;;;;;;8.70;99.90;;;;;;5115564;28;20018;-73
2023/04/25 07:29:23;;;;;;;;;;;9.10;99.90;;;;;;5096002;28;19924;-73
2023/04/25 07:31:55;;;;;;;;;;;9.20;99.90;;;;;;5115658;28;19931;-73
2023/04/25 07:34:20;;;;;;;;;;;9.20;99.90;;;;;;5097055;28;19923;-74
2023/04/25 07:36:46;;;;;;;;;;;9.50;99.90;;;;;;5096895;28;20044;-74
2023/04/25 07:39:11;;;;;;;;;;;10.00;99.90;;;;;;5096741;28;19966;-74
2023/04/25 07:41:37;;;;;;;;;;;10.90;99.90;;;;;;5115378;28;19972;-75
2023/04/25 07:44:03;;;;;;;;;;;12.00;99.90;;;;;;5096336;28;20287;-75
2023/04/25 07:46:28;;;;;;;;;;;12.90;99.90;;;;;;5115325;28;19931;-74
2023/04/25 07:48:54;;;;;;;;;;;13.40;99.90;;;;;;5096089;28;19924;-72
2023/04/25 07:51:21;;;;;;;;;;;13.30;98.30;;;;;;5093957;28;19925;-72
2023/04/25 07:53:47;;;;;;;;;;;13.00;98.70;;;;;;5094394;28;19932;-72
2023/04/25 07:56:13;;;;;;;;;;;12.90;99.00;;;;;;5094448;28;20401;-72
2023/04/25 07:58:38;;;;;;;;;;;13.50;99.70;;;;;;5090192;28;20401;-72
2023/04/25 08:01:04;;;;;;;;;;;13.70;96.60;;;;;;5096368;28;20002;-72
2023/04/25 08:03:29;;;;;;;;;;;14.20;96.60;;;;;;5114883;28;19924;-72
2023/04/25 08:05:55;;;;;;;;;;;14.30;95.40;;;;;;5095832;28;19924;-72
2023/04/25 08:08:22;;;;;;;;;;;14.50;95.70;;;;;;5113619;28;20296;-72
2023/04/25 08:10:48;;;;;;;;;;;14.60;95.80;;;;;;5113894;28;19977;-72
2023/04/25 08:13:13;;;;;;;;;;;15.10;96.00;;;;;;5096587;28;19931;-72
2023/04/25 08:15:39;;;;;;;;;;;14.90;95.10;;;;;;5114133;28;20433;-71
2023/04/25 08:18:05;;;;;;;;;;;14.20;94.50;;;;;;5095569;28;19974;-72
2023/04/25 08:20:36;;;;;;;;;;;13.80;96.50;;;;;;5114580;28;19994;-71
2023/04/25 08:23:02;;;;;;;;;;;13.20;95.70;;;;;;5095862;28;20302;-71
2023/04/25 08:25:27;;;;;;;;;;;12.60;97.00;;;;;;5094863;28;20006;-71
2023/04/25 08:27:53;;;;;;;;;;;12.30;97.70;;;;;;5113797;28;20023;-73
2023/04/25 08:30:19;;;;;;;;;;;11.90;98.20;;;;;;5114396;28;19935;-73
2023/04/25 08:32:47;;;;;;;;;;;11.20;99.00;;;;;;5095370;28;20006;-73
2023/04/25 08:35:13;;;;;;;;;;;11.10;99.90;;;;;;5113868;28;19931;-74
2023/04/25 08:37:41;;;;;;;;;;;12.10;99.90;;;;;;5113837;28;19924;-72
2023/04/25 08:40:11;;;;;;;;;;;13.30;98.10;;;;;;5094805;28;19950;-72
2023/04/25 08:42:37;;;;;;;;;;;14.50;97.00;;;;;;5113673;28;19959;-73
2023/04/25 08:45:08;;;;;;;;;;;15.40;94.50;;;;;;5095164;28;19963;-72
2023/04/25 08:47:34;;;;;;;;;;;16.10;93.90;;;;;;5095137;28;19957;-73
2023/04/25 08:50:02;;;;;;;;;;;16.20;91.40;;;;;;5113878;28;19927;-72
2023/04/25 08:52:28;;;;;;;;;;;16.70;91.10;;;;;;5114071;28;20005;-73
2023/04/25 08:54:54;;;;;;;;;;;17.10;91.10;;;;;;5112251;28;19930;-73
2023/04/25 08:57:20;;;;;;;;;;;17.50;90.10;;;;;;5095461;28;19924;-72
2023/04/25 08:59:46;;;;;;;;;;;17.60;90.20;;;;;;5113650;28;19969;-72
2023/04/25 09:02:15;;;;;;;;;;;17.00;89.50;;;;;;5094500;28;19920;-72
2023/04/25 09:04:42;;;;;;;;;;;17.10;90.00;;;;;;5112795;28;19928;-72
2023/04/25 09:07:08;;;;;;;;;;;17.20;91.10;;;;;;5094391;28;19989;-72
2023/04/25 09:09:33;;;;;;;;;;;16.40;90.90;;;;;;5113644;28;19924;-71
2023/04/25 09:12:01;;;;;;;;;;;15.40;91.60;;;;;;5113269;28;19924;-71
2023/04/25 09:14:27;;;;;;;;;;;14.50;92.40;;;;;;5113123;28;19927;-72
2023/04/25 09:16:56;;;;;;;;;;;14.00;93.70;;;;;;5112793;28;20340;-72
2023/04/25 09:19:31;;;;;;;;;;;14.10;94.00;;;;;;5096080;28;19967;-71
2023/04/25 09:22:00;;;;;;;;;;;14.40;92.80;;;;;;5112374;28;19936;-71
2023/04/25 09:24:32;;;;;;;;;;;14.30;92.50;;;;;;5095258;28;19923;-71
2023/04/25 09:26:58;;;;;;;;;;;13.80;92.00;;;;;;5094357;28;19928;-71
2023/04/25 09:29:33;;;;;;;;;;;13.60;93.50;;;;;;5112773;28;19927;-71
2023/04/25 09:32:19;;;;;;;;;;;12.90;94.60;;;;;;5095114;28;19976;-71
2023/04/25 09:34:48;;;;;;;;;;;12.60;95.90;;;;;;5094801;28;19928;-71
2023/04/25 09:37:20;;;;;;;;;;;12.30;96.90;;;;;;5094337;28;20324;-71
2023/04/25 09:39:47;;;;;;;;;;;12.50;96.90;;;;;;5113535;28;19994;-71
2023/04/25 09:42:16;;;;;;;;;;;13.50;97.50;;;;;;5094176;28;19924;-73
2023/04/25 09:44:45;;;;;;;;;;;13.10;98.10;;;;;;5112764;28;19923;-73
2023/04/25 09:47:12;;;;;;;;;;;13.40;97.60;;;;;;5094698;28;20409;-73
2023/04/25 09:49:42;;;;;;;;;;;13.50;96.30;;;;;;5112657;28;19976;-73
2023/04/25 09:52:20;;;;;;;;;;;13.80;96.70;;;;;;5113077;28;19924;-73
2023/04/25 09:54:47;;;;;;;;;;;13.90;96.00;;;;;;5074523;28;19931;-72
2023/04/25 09:57:16;;;;;;;;;;;13.70;94.60;;;;;;5073666;28;19924;-71
2023/04/25 09:59:52;;;;;;;;;;;13.30;95.70;;;;;;5074615;28;20024;-71
2023/04/25 10:02:20;;;;;;;;;;;13.10;96.40;;;;;;5092892;28;19924;-72
2023/04/25 10:04:48;;;;;;;;;;;13.30;95.60;;;;;;5093597;28;19931;-72
2023/04/25 10:07:14;;;;;;;;;;;14.40;96.00;;;;;;5094594;28;19924;-72
2023/04/25 10:09:42;;;;;;;;;;;15.40;93.00;;;;;;5112975;28;19947;-73
2023/04/25 10:12:10;;;;;;;;;;;15.70;91.90;;;;;;5111909;28;19927;-72
2023/04/25 10:14:36;;;;;;;;;;;16.10;92.00;;;;;;5113044;28;19930;-72
2023/04/25 10:17:05;;;;;;;;;;;16.90;91.80;;;;;;5097255;28;19923;-73
2023/04/25 10:19:37;;;;;;;;;;;17.20;90.20;;;;;;5097987;28;19924;-72
2023/04/25 10:22:03;;;;;;;;;;;16.90;88.40;;;;;;5098560;28;20024;-72
2023/04/25 10:24:28;;;;;;;;;;;17.10;90.50;;;;;;5115460;28;20875;-71
2023/04/25 10:26:54;;;;;;;;;;;16.40;90.30;;;;;;5116558;28;19924;-71
2023/04/25 10:29:26;;;;;;;;;;;15.40;92.00;;;;;;5098742;28;19923;-71
2023/04/25 10:31:51;;;;;;;;;;;14.20;93.20;;;;;;5097495;28;19924;-71
2023/04/25 10:34:26;;;;;;;;;;;13.30;95.20;;;;;;5098329;28;19962;-70
2023/04/25 10:36:52;;;;;;;;;;;12.60;96.50;;;;;;5098220;28;19930;-70
2023/04/25 10:39:25;;;;;;;;;;;11.80;98.20;;;;;;5115591;28;19924;-71
2023/04/25 10:41:55;;;;;;;;;;;11.80;97.70;;;;;;5115983;28;19923;-72
2023/04/25 10:44:21;;;;;;;;;;;12.60;97.80;;;;;;5098046;28;19924;-72
2023/04/25 10:46:47;;;;;;;;;;;13.70;96.20;;;;;;5115606;28;19927;-71
2023/04/25 10:49:29;;;;;;;;;;;14.00;93.60;;;;;;5116028;28;19931;-71
2023/04/25 10:52:10;;;;;;;;;;;14.20;94.80;;;;;;5097305;28;19923;-72
2023/04/25 10:54:40;;;;;;;;;;;15.10;94.50;;;;;;5097180;28;19993;-72
2023/04/25 10:57:05;;;;;;;;;;;16.10;93.70;;;;;;5097394;28;19923;-72
2023/04/25 10:59:31;;;;;;;;;;;16.70;92.20;;;;;;5097147;28;19924;-72
2023/04/25 11:01:57;;;;;;;;;;;17.30;90.90;;;;;;5115647;28;19928;-72
2023/04/25 11:04:29;;;;;;;;;;;17.60;90.30;;;;;;5115691;28;19927;-72
2023/04/25 11:07:07;;;;;;;;;;;17.60;88.40;;;;;;5096602;28;19931;-72
2023/04/25 11:09:36;;;;;;;;;;;17.90;89.60;;;;;;5116158;28;19931;-72
2023/04/25 11:12:02;;;;;;;;;;;18.00;89.80;;;;;;5097081;28;19931;-71
2023/04/25 11:14:27;;;;;;;;;;;17.70;88.80;;;;;;5115008;28;19928;-71
2023/04/25 11:16:55;;;;;;;;;;;17.00;88.70;;;;;;5115288;28;19928;-71
2023/04/25 11:19:21;;;;;;;;;;;16.70;90.80;;;;;;5097014;28;20419;-71
2023/04/25 11:21:46;;;;;;;;;;;16.40;90.50;;;;;;5114662;28;20035;-71
2023/04/25 11:24:12;;;;;;;;;;;15.50;90.30;;;;;;5115175;28;19924;-70
2023/04/25 11:26:37;;;;;;;;;;;14.70;92.00;;;;;;5097097;28;19931;-71
2023/04/25 11:29:03;;;;;;;;;;;14.60;92.40;;;;;;5095026;28;19924;-71
2023/04/25 11:31:29;;;;;;;;;;;14.80;93.30;;;;;;5115415;28;19928;-71
2023/04/25 11:33:56;;;;;;;;;;;15.00;92.70;;;;;;5096605;28;20014;-71
2023/04/25 11:36:22;;;;;;;;;;;14.80;92.40;;;;;;5095932;28;19924;-71
2023/04/25 11:38:48;;;;;;;;;;;15.20;93.90;;;;;;5094838;28;19931;-71
2023/04/25 11:41:13;;;;;;;;;;;15.40;92.20;;;;;;5083272;28;20022;-71
2023/04/25 11:43:39;;;;;;;;;;;15.50;91.80;;;;;;5096224;28;19923;-71
2023/04/25 11:46:08;;;;;;;;;;;15.60;91.40;;;;;;5096069;28;20022;-72
2023/04/25 11:48:37;;;;;;;;;;;16.10;91.50;;;;;;5096449;28;20387;-71
2023/04/25 11:51:06;;;;;;;;;;;16.30;90.60;;;;;;5114658;28;20390;-71
2023/04/25 11:53:32;;;;;;;;;;;16.20;91.00;;;;;;5097080;28;19920;-71
2023/04/25 11:55:57;;;;;;;;;;;15.80;90.70;;;;;;5113651;28;20392;-71
2023/04/25 11:58:23;;;;;;;;;;;15.40;90.20;;;;;;5114531;28;20003;-71
2023/04/25 12:00:48;;;;;;;;;;;15.10;88.90;;;;;;5096615;28;19931;-72
2023/04/25 12:03:23;;;;;;;;;;;14.70;90.20;;;;;;5095789;28;19924;-71
2023/04/25 12:05:49;;;;;;;;;;;15.30;91.40;;;;;;5114391;28;19924;-72
2023/04/25 12:08:15;;;;;;;;;;;16.00;91.40;;;;;;5114672;28;19924;-72
2023/04/25 12:10:42;;;;;;;;;;;16.50;90.00;;;;;;5113879;28;20268;-71
2023/04/25 12:13:21;;;;;;;;;;;16.50;83.40;;;;;;5114116;28;19924;-73
2023/04/25 12:15:47;;;;;;;;;;;16.40;88.00;;;;;;5096139;28;19928;-73
2023/04/25 12:18:12;;;;;;;;;;;16.20;86.70;;;;;;5095149;28;20391;-73
2023/04/25 12:20:38;;;;;;;;;;;16.60;88.60;;;;;;5114018;28;19924;-73
2023/04/25 12:23:11;;;;;;;;;;;16.70;89.60;;;;;;5096386;28;19924;-71
2023/04/25 12:25:38;;;;;;;;;;;17.10;88.30;;;;;;5113209;28;19928;-72
2023/04/25 12:28:20;;;;;;;;;;;16.90;87.60;;;;;;5114068;28;20302;-71
2023/04/25 12:31:14;;;;;;;;;;;16.80;89.90;;;;;;5096267;28;20278;-72
2023/04/25 12:33:40;;;;;;;;;;;17.00;88.30;;;;;;5093382;28;19930;-71
2023/04/25 12:36:11;;;;;;;;;;;16.80;87.30;;;;;;5113529;28;20271;-71
2023/04/25 12:38:40;;;;;;;;;;;16.60;87.70;;;;;;5095272;28;20022;-71
2023/04/25 12:41:08;;;;;;;;;;;16.40;85.70;;;;;;5095969;28;19924;-71
2023/04/25 12:43:34;;;;;;;;;;;16.30;85.20;;;;;;5114168;28;19924;-72
2023/04/25 12:46:03;;;;;;;;;;;16.30;90.00;;;;;;5112496;28;20285;-72
2023/04/25 12:48:28;;;;;;;;;;;16.60;91.10;;;;;;5113647;28;19931;-72
2023/04/25 12:50:54;;;;;;;;;;;16.70;90.20;;;;;;5113765;28;19923;-71
2023/04/25 12:53:20;;;;;;;;;;;16.20;86.10;;;;;;5095093;28;19930;-71
2023/04/25 12:55:46;;;;;;;;;;;15.50;86.80;;;;;;5095278;28;19928;-71
2023/04/25 12:58:13;;;;;;;;;;;14.90;88.20;;;;;;5113647;28;19930;-71
2023/04/25 13:00:38;;;;;;;;;;;14.40;90.20;;;;;;5112744;28;19923;-71
2023/04/25 13:03:04;;;;;;;;;;;14.60;90.10;;;;;;5094894;28;19930;-71
2023/04/25 13:05:30;;;;;;;;;;;14.40;88.00;;;;;;5113512;28;20348;-71
2023/04/25 13:07:55;;;;;;;;;;;14.10;89.60;;;;;;5112532;28;19968;-72
2023/04/25 13:10:21;;;;;;;;;;;14.40;89.70;;;;;;5095339;28;19923;-72
2023/04/25 13:12:46;;;;;;;;;;;14.20;89.80;;;;;;5113732;28;20347;-71
2023/04/25 13:15:12;;;;;;;;;;;14.00;89.50;;;;;;5094072;28;19946;-71
2023/04/25 13:17:38;;;;;;;;;;;14.10;90.70;;;;;;5113172;28;20291;-71
2023/04/25 13:20:08;;;;;;;;;;;14.10;90.60;;;;;;5094461;28;19928;-71
2023/04/25 13:22:36;;;;;;;;;;;14.30;90.30;;;;;;5095525;28;20018;-72
2023/04/25 13:25:02;;;;;;;;;;;14.20;88.70;;;;;;5113368;28;20014;-72
2023/04/25 13:27:28;;;;;;;;;;;14.40;89.10;;;;;;5112640;28;20037;-72
2023/04/25 13:29:53;;;;;;;;;;;14.20;87.40;;;;;;5094746;28;20276;-72
2023/04/25 13:32:19;;;;;;;;;;;14.20;90.10;;;;;;5113272;28;20397;-72
2023/04/25 13:34:47;;;;;;;;;;;14.30;90.20;;;;;;5094975;28;19981;-72
2023/04/25 13:37:15;;;;;;;;;;;14.40;89.90;;;;;;5112727;28;19924;-72
2023/04/25 13:39:41;;;;;;;;;;;14.50;90.30;;;;;;5095632;28;20290;-72
2023/04/25 13:42:06;;;;;;;;;;;14.40;91.10;;;;;;5094237;28;19934;-72
2023/04/25 13:44:32;;;;;;;;;;;14.20;93.10;;;;;;5112742;28;19924;-72
2023/04/25 13:46:57;;;;;;;;;;;13.40;92.50;;;;;;5094839;28;19924;-72
2023/04/25 13:49:23;;;;;;;;;;;12.40;92.30;;;;;;5112457;28;19930;-72
2023/04/25 13:51:48;;;;;;;;;;;12.10;94.70;;;;;;5097782;28;20015;-72
2023/04/25 13:54:14;;;;;;;;;;;11.50;96.10;;;;;;5117408;28;20371;-74
2023/04/25 13:56:41;;;;;;;;;;;11.20;97.20;;;;;;5098056;28;19939;-74
2023/04/25 13:59:07;;;;;;;;;;;11.40;98.00;;;;;;5098357;28;19963;-74
2023/04/25 14:01:35;;;;;;;;;;;11.90;98.10;;;;;;5116812;28;19962;-74
2023/04/25 14:04:01;;;;;;;;;;;11.80;96.90;;;;;;5116256;28;19969;-74
2023/04/25 14:06:27;;;;;;;;;;;11.90;95.60;;;;;;5098466;28;20294;-74
2023/04/25 14:08:53;;;;;;;;;;;12.10;95.30;;;;;;5116429;28;20387;-74
2023/04/25 14:11:19;;;;;;;;;;;12.60;95.10;;;;;;5097949;28;19967;-74
2023/04/25 14:13:45;;;;;;;;;;;13.00;94.00;;;;;;5098913;28;19931;-74
2023/04/25 14:16:10;;;;;;;;;;;13.20;95.40;;;;;;5116398;28;19928;-74
2023/04/25 14:18:38;;;;;;;;;;;13.20;94.70;;;;;;5116136;28;20371;-74
2023/04/25 14:21:07;;;;;;;;;;;13.20;93.80;;;;;;5116548;28;19927;-73